createdAt,value
2017-02-09T00:00:44.321Z,13.4
2017-02-09T00:01:55.086Z,13.12
2017-02-09T00:03:05.802Z,13.02
2017-02-09T00:04:16.772Z,13.21
2017-02-09T00:05:26.694Z,12.92
2017-02-09T00:06:37.408Z,13.21
2017-02-09T00:07:47.972Z,13.31
2017-02-09T00:08:58.686Z,13.02
2017-02-09T00:10:09.258Z,13.12
2017-02-09T00:11:19.981Z,13.21
2017-02-09T00:12:30.695Z,13.21
2017-02-09T00:13:41.419Z,13.02
2017-02-09T00:14:51.725Z,13.12
2017-02-09T00:16:02.690Z,13.31
2017-02-09T00:17:13.015Z,12.92
2017-02-09T00:18:23.731Z,13.12
2017-02-09T00:19:34.441Z,13.49
2017-02-09T00:20:45.149Z,13.21
2017-02-09T00:21:56.162Z,13.31
2017-02-09T00:23:06.877Z,13.4
2017-02-09T00:24:17.607Z,13.59
2017-02-09T00:25:27.927Z,13.21
2017-02-09T00:26:38.298Z,13.31
2017-02-09T00:27:49.308Z,13.02
2017-02-09T00:29:00.019Z,13.02
2017-02-09T00:30:10.340Z,13.12
2017-02-09T00:31:20.264Z,13.21
2017-02-09T00:32:30.584Z,13.12
2017-02-09T00:33:41.168Z,13.49
2017-02-09T00:34:51.875Z,13.4
2017-02-09T00:36:02.202Z,13.21
2017-02-09T00:37:12.122Z,13.31
2017-02-09T00:38:22.448Z,13.21
2017-02-09T00:39:33.421Z,13.4
2017-02-09T00:40:43.742Z,13.59
2017-02-09T00:41:54.451Z,13.21
2017-02-09T00:43:05.161Z,13.12
2017-02-09T00:44:15.882Z,13.02
2017-02-09T00:45:26.493Z,13.12
2017-02-09T00:46:37.215Z,13.49
2017-02-09T00:47:47.127Z,13.21
2017-02-09T00:48:57.444Z,13.21
2017-02-09T00:50:08.157Z,13.21
2017-02-09T00:51:19.164Z,13.31
2017-02-09T00:52:29.891Z,13.12
2017-02-09T00:53:40.605Z,13.21
2017-02-09T00:54:51.336Z,13.21
2017-02-09T00:56:02.058Z,13.12
2017-02-09T00:57:13.024Z,13.12
2017-02-09T00:58:23.341Z,13.12
2017-02-09T00:59:34.055Z,13.31
2017-02-09T01:00:44.773Z,13.02
2017-02-09T01:01:55.488Z,13.21
2017-02-09T01:03:06.454Z,13.02
2017-02-09T01:04:17.178Z,13.12
2017-02-09T01:05:27.492Z,12.83
2017-02-09T01:06:38.211Z,13.12
2017-02-09T01:07:48.941Z,13.12
2017-02-09T01:08:59.908Z,13.02
2017-02-09T01:10:10.650Z,13.21
2017-02-09T01:11:21.355Z,13.21
2017-02-09T01:12:31.684Z,13.31
2017-02-09T01:13:42.004Z,12.92
2017-02-09T01:14:52.974Z,13.12
2017-02-09T01:16:03.850Z,13.21
2017-02-09T01:17:15.165Z,13.21
2017-02-09T01:18:25.879Z,13.21
2017-02-09T01:19:36.585Z,13.21
2017-02-09T01:20:47.148Z,13.02
2017-02-09T01:21:57.079Z,13.12
2017-02-09T01:23:07.417Z,13.12
2017-02-09T01:24:18.134Z,13.12
2017-02-09T01:25:28.851Z,13.12
2017-02-09T01:26:39.418Z,12.92
2017-02-09T01:27:49.341Z,12.92
2017-02-09T01:29:00.054Z,13.02
2017-02-09T01:30:10.781Z,13.12
2017-02-09T01:31:21.101Z,13.21
2017-02-09T01:32:32.068Z,13.12
2017-02-09T01:33:42.774Z,13.21
2017-02-09T01:34:53.491Z,13.21
2017-02-09T01:36:04.208Z,13.21
2017-02-09T01:37:14.915Z,13.12
2017-02-09T01:38:25.932Z,13.21
2017-02-09T01:39:36.649Z,13.12
2017-02-09T01:40:46.972Z,12.83
2017-02-09T01:41:57.281Z,12.92
2017-02-09T01:43:07.587Z,13.21
2017-02-09T01:44:18.576Z,13.02
2017-02-09T01:45:28.889Z,13.02
2017-02-09T01:46:38.409Z,13.21
2017-02-09T01:47:48.724Z,12.92
2017-02-09T01:48:59.027Z,12.83
2017-02-09T01:50:08.844Z,13.21
2017-02-09T01:51:19.158Z,13.12
2017-02-09T01:52:29.859Z,12.92
2017-02-09T01:53:40.166Z,12.92
2017-02-09T01:54:50.493Z,12.92
2017-02-09T01:56:01.044Z,13.12
2017-02-09T01:57:11.363Z,12.83
2017-02-09T01:58:22.073Z,13.12
2017-02-09T01:59:32.793Z,13.21
2017-02-09T02:00:43.108Z,12.92
2017-02-09T02:01:54.059Z,12.92
2017-02-09T02:03:03.981Z,12.83
2017-02-09T02:04:14.288Z,12.73
2017-02-09T02:05:24.608Z,12.83
2017-02-09T02:06:35.319Z,12.83
2017-02-09T02:07:45.926Z,12.92
2017-02-09T02:08:56.623Z,12.73
2017-02-09T02:10:06.941Z,12.35
2017-02-09T02:11:17.644Z,12.73
2017-02-09T02:12:28.355Z,12.73
2017-02-09T02:13:38.960Z,12.54
2017-02-09T02:14:48.873Z,12.35
2017-02-09T02:15:58.780Z,12.63
2017-02-09T02:17:09.091Z,12.45
2017-02-09T02:18:18.611Z,12.54
2017-02-09T02:19:29.218Z,12.73
2017-02-09T02:20:39.529Z,12.83
2017-02-09T02:21:49.042Z,12.92
2017-02-09T02:22:59.756Z,12.63
2017-02-09T02:24:09.281Z,12.63
2017-02-09T02:25:19.836Z,12.54
2017-02-09T02:26:30.544Z,12.63
2017-02-09T02:27:40.869Z,12.54
2017-02-09T02:28:51.558Z,12.63
2017-02-09T02:30:01.475Z,12.73
2017-02-09T02:31:12.438Z,12.92
2017-02-09T02:32:23.148Z,12.83
2017-02-09T02:33:33.849Z,13.02
2017-02-09T02:34:43.768Z,12.45
2017-02-09T02:35:54.467Z,12.63
2017-02-09T02:37:04.688Z,12.63
2017-02-09T02:38:15.013Z,12.35
2017-02-09T02:39:25.328Z,12.54
2017-02-09T02:40:35.270Z,12.54
2017-02-09T02:41:45.580Z,12.54
2017-02-09T02:42:55.737Z,12.35
2017-02-09T02:44:05.656Z,12.54
2017-02-09T02:45:16.355Z,12.54
2017-02-09T02:46:26.867Z,12.35
2017-02-09T02:47:36.774Z,12.16
2017-02-09T02:48:46.994Z,12.45
2017-02-09T02:49:57.295Z,12.45
2017-02-09T02:51:07.650Z,12.35
2017-02-09T02:52:18.366Z,12.16
2017-02-09T02:53:28.272Z,12.26
2017-02-09T02:54:38.879Z,12.16
2017-02-09T02:55:49.585Z,12.35
2017-02-09T02:56:59.503Z,12.45
2017-02-09T02:58:10.207Z,12.63
2017-02-09T02:59:20.947Z,12.63
2017-02-09T03:00:31.109Z,12.54
2017-02-09T03:01:41.411Z,12.73
2017-02-09T03:02:51.715Z,12.54
2017-02-09T03:04:01.634Z,12.16
2017-02-09T03:05:11.539Z,12.16
2017-02-09T03:06:22.114Z,12.26
2017-02-09T03:07:32.815Z,12.16
2017-02-09T03:08:42.723Z,12.26
2017-02-09T03:09:53.430Z,12.16
2017-02-09T03:11:03.337Z,12.16
2017-02-09T03:12:13.497Z,12.35
2017-02-09T03:13:24.406Z,12.35
2017-02-09T03:14:34.751Z,12.26
2017-02-09T03:15:45.455Z,12.16
2017-02-09T03:16:56.147Z,12.16
2017-02-09T03:18:07.154Z,12.26
2017-02-09T03:19:17.065Z,12.06
2017-02-09T03:20:27.387Z,12.06
2017-02-09T03:21:38.096Z,12.35
2017-02-09T03:22:48.409Z,12.16
2017-02-09T03:23:59.414Z,12.54
2017-02-09T03:25:09.725Z,12.63
2017-02-09T03:26:20.418Z,12.83
2017-02-09T03:27:30.728Z,12.16
2017-02-09T03:28:41.644Z,12.26
2017-02-09T03:29:52.213Z,12.16
2017-02-09T03:31:03.609Z,12.26
2017-02-09T03:32:13.915Z,12.16
2017-02-09T03:33:24.616Z,12.06
2017-02-09T03:34:35.324Z,12.16
2017-02-09T03:35:45.544Z,12.16
2017-02-09T03:36:55.860Z,11.96
2017-02-09T03:38:06.563Z,12.06
2017-02-09T03:39:16.500Z,12.06
2017-02-09T03:40:27.203Z,11.96
2017-02-09T03:41:37.369Z,12.06
2017-02-09T03:42:47.672Z,12.26
2017-02-09T03:43:58.389Z,12.06
2017-02-09T03:45:08.693Z,12.06
2017-02-09T03:46:18.220Z,12.06
2017-02-09T03:47:28.434Z,12.06
2017-02-09T03:48:39.128Z,12.16
2017-02-09T03:49:49.425Z,12.06
2017-02-09T03:50:59.733Z,12.16
2017-02-09T03:52:09.646Z,12.06
2017-02-09T03:53:20.613Z,12.16
2017-02-09T03:54:31.323Z,12.16
2017-02-09T03:55:41.643Z,12.16
2017-02-09T03:56:51.954Z,12.16
2017-02-09T03:58:02.661Z,12.06
2017-02-09T03:59:13.231Z,11.96
2017-02-09T04:00:23.944Z,11.96
2017-02-09T04:01:34.249Z,12.16
2017-02-09T04:02:44.169Z,11.87
2017-02-09T04:03:54.869Z,12.06
2017-02-09T04:05:05.826Z,12.16
2017-02-09T04:06:15.378Z,12.06
2017-02-09T04:07:25.695Z,12.26
2017-02-09T04:08:35.615Z,12.26
2017-02-09T04:09:46.320Z,12.16
2017-02-09T04:10:57.266Z,11.96
2017-02-09T04:12:07.969Z,11.77
2017-02-09T04:13:17.874Z,12.06
2017-02-09T04:14:28.183Z,12.16
2017-02-09T04:15:38.904Z,12.26
2017-02-09T04:16:49.912Z,12.16
2017-02-09T04:18:00.219Z,12.06
2017-02-09T04:19:10.539Z,12.26
2017-02-09T04:20:21.246Z,12.06
2017-02-09T04:21:31.554Z,11.96
2017-02-09T04:22:42.604Z,11.87
2017-02-09T04:23:53.299Z,12.16
2017-02-09T04:25:02.822Z,12.16
2017-02-09T04:26:13.531Z,11.87
2017-02-09T04:27:24.257Z,12.16
2017-02-09T04:28:35.260Z,11.96
2017-02-09T04:29:45.571Z,12.26
2017-02-09T04:30:56.277Z,11.96
2017-02-09T04:32:06.988Z,11.77
2017-02-09T04:33:17.701Z,11.77
2017-02-09T04:34:28.709Z,11.39
2017-02-09T04:35:39.407Z,11.96
2017-02-09T04:36:49.714Z,11.77
2017-02-09T04:38:00.424Z,11.96
2017-02-09T04:39:09.942Z,12.06
2017-02-09T04:40:20.968Z,11.96
2017-02-09T04:41:31.685Z,11.77
2017-02-09T04:42:41.207Z,11.96
2017-02-09T04:43:50.735Z,11.96
2017-02-09T04:45:01.507Z,12.16
2017-02-09T04:46:11.673Z,11.96
2017-02-09T04:47:21.989Z,11.96
2017-02-09T04:48:32.685Z,11.68
2017-02-09T04:49:43.001Z,11.68
2017-02-09T04:50:53.310Z,11.96
2017-02-09T04:52:03.881Z,11.87
2017-02-09T04:53:13.791Z,12.26
2017-02-09T04:54:24.095Z,11.96
2017-02-09T04:55:34.412Z,11.96
2017-02-09T04:56:44.719Z,11.96
2017-02-09T04:57:55.727Z,12.06
2017-02-09T04:59:06.043Z,12.06
2017-02-09T05:00:16.348Z,12.06
2017-02-09T05:01:26.675Z,12.16
2017-02-09T05:02:36.591Z,12.16
2017-02-09T05:03:46.764Z,12.06
2017-02-09T05:04:57.467Z,11.96
2017-02-09T05:06:07.780Z,11.96
2017-02-09T05:07:18.478Z,11.87
2017-02-09T05:08:28.799Z,11.87
2017-02-09T05:09:38.571Z,11.96
2017-02-09T05:10:49.276Z,12.05
2017-02-09T05:12:00.021Z,11.58
2017-02-09T05:13:10.726Z,11.58
2017-02-09T05:14:21.430Z,11.29
2017-02-09T05:15:31.644Z,11.2
2017-02-09T05:16:41.967Z,11.19
2017-02-09T05:17:52.279Z,11.2
2017-02-09T05:19:02.981Z,11.19
2017-02-09T05:20:13.691Z,11.2
2017-02-09T05:21:23.854Z,11.01
2017-02-09T05:22:34.165Z,10.82
2017-02-09T05:23:44.472Z,10.91
2017-02-09T05:24:55.180Z,11.1
2017-02-09T05:26:05.486Z,10.63
2017-02-09T05:27:17.351Z,10.53
2017-02-09T05:28:27.672Z,10.53
2017-02-09T05:29:38.003Z,10.72
2017-02-09T05:30:48.709Z,10.53
2017-02-09T05:31:59.454Z,10.62
2017-02-09T05:33:10.010Z,10.43
2017-02-09T05:34:20.312Z,10.52
2017-02-09T05:35:30.229Z,10.52
2017-02-09T05:36:40.935Z,10.53
2017-02-09T05:37:51.642Z,10.52
2017-02-09T05:39:02.596Z,10.43
2017-02-09T05:40:12.907Z,10.34
2017-02-09T05:41:23.224Z,10.43
2017-02-09T05:42:33.940Z,10.33
2017-02-09T05:43:44.260Z,10.33
2017-02-09T05:44:55.271Z,10.52
2017-02-09T05:46:05.973Z,10.43
2017-02-09T05:47:16.289Z,10.43
2017-02-09T05:48:26.213Z,10.62
2017-02-09T05:49:36.529Z,10.33
2017-02-09T05:50:47.490Z,10.24
2017-02-09T05:51:57.413Z,10.24
2017-02-09T05:53:08.120Z,9.95
2017-02-09T05:54:18.434Z,10.14
2017-02-09T05:55:28.744Z,9.86
2017-02-09T05:56:39.355Z,9.95
2017-02-09T05:57:49.668Z,9.86
2017-02-09T05:58:59.585Z,9.95
2017-02-09T06:00:09.512Z,9.95
2017-02-09T06:01:20.245Z,9.77
2017-02-09T06:02:31.259Z,9.95
2017-02-09T06:03:41.605Z,10.05
2017-02-09T06:04:51.911Z,9.67
2017-02-09T06:06:02.620Z,9.77
2017-02-09T06:07:13.355Z,10.05
2017-02-09T06:08:23.969Z,9.86
2017-02-09T06:09:34.676Z,10.05
2017-02-09T06:10:45.377Z,9.86
2017-02-09T06:11:55.691Z,9.95
2017-02-09T06:13:05.615Z,10.05
2017-02-09T06:14:16.770Z,9.77
2017-02-09T06:15:27.507Z,9.67
2017-02-09T06:16:38.215Z,9.67
2017-02-09T06:17:48.554Z,9.86
2017-02-09T06:18:59.271Z,10.05
2017-02-09T06:20:09.451Z,9.95
2017-02-09T06:21:19.373Z,10.05
2017-02-09T06:22:30.119Z,9.47
2017-02-09T06:23:39.650Z,9.76
2017-02-09T06:24:50.376Z,9.48
2017-02-09T06:25:59.755Z,10.05
2017-02-09T06:27:10.466Z,9.77
2017-02-09T06:28:20.392Z,9.77
2017-02-09T06:29:29.921Z,9.77
2017-02-09T06:30:40.235Z,9.67
2017-02-09T06:31:51.253Z,9.67
2017-02-09T06:33:01.970Z,9.56
2017-02-09T06:34:12.302Z,9.76
2017-02-09T06:35:23.029Z,9.86
2017-02-09T06:36:33.736Z,9.66
2017-02-09T06:37:44.697Z,9.56
2017-02-09T06:38:55.024Z,9.56
2017-02-09T06:40:05.732Z,9.76
2017-02-09T06:41:16.456Z,9.56
2017-02-09T06:42:26.782Z,9.56
2017-02-09T06:43:37.800Z,9.09
2017-02-09T06:44:48.535Z,9.09
2017-02-09T06:45:59.284Z,9.09
2017-02-09T06:47:09.216Z,9.28
2017-02-09T06:48:19.945Z,9.28
2017-02-09T06:49:30.107Z,9.38
2017-02-09T06:50:40.425Z,8.9
2017-02-09T06:51:50.747Z,9.19
2017-02-09T06:53:00.706Z,9.28
2017-02-09T06:54:11.025Z,9.19
2017-02-09T06:55:21.998Z,9.28
2017-02-09T06:56:32.733Z,9.28
2017-02-09T06:57:43.450Z,8.9
2017-02-09T06:58:54.174Z,9.28
2017-02-09T07:00:04.492Z,9
2017-02-09T07:01:14.653Z,9.19
2017-02-09T07:02:25.383Z,8.81
2017-02-09T07:03:36.109Z,9.28
2017-02-09T07:04:46.816Z,9.19
2017-02-09T07:05:57.195Z,9.09
2017-02-09T07:07:08.187Z,9.09
2017-02-09T07:08:18.496Z,9.19
2017-02-09T07:09:29.213Z,9.28
2017-02-09T07:10:39.571Z,9
2017-02-09T07:11:49.512Z,9
2017-02-09T07:13:00.517Z,8.81
2017-02-09T07:14:10.447Z,8.71
2017-02-09T07:15:20.773Z,8.81
2017-02-09T07:16:31.488Z,9.19
2017-02-09T07:17:41.807Z,8.8
2017-02-09T07:18:52.890Z,8.9
2017-02-09T07:20:03.230Z,8.9
2017-02-09T07:21:13.163Z,8.9
2017-02-09T07:22:23.089Z,8.71
2017-02-09T07:23:33.802Z,8.81
2017-02-09T07:24:43.975Z,8.81
2017-02-09T07:25:54.699Z,8.9
2017-02-09T07:27:04.619Z,9.09
2017-02-09T07:28:15.324Z,8.9
2017-02-09T07:29:25.636Z,9.09
2017-02-09T07:30:36.229Z,9
2017-02-09T07:31:46.565Z,9
2017-02-09T07:32:57.284Z,8.71
2017-02-09T07:34:07.998Z,9
2017-02-09T07:35:18.724Z,8.81
2017-02-09T07:36:29.722Z,8.81
2017-02-09T07:37:40.458Z,8.9
2017-02-09T07:38:50.812Z,8.81
2017-02-09T07:40:00.767Z,8.9
2017-02-09T07:41:10.753Z,8.9
2017-02-09T07:42:21.789Z,9
2017-02-09T07:43:32.110Z,8.9
2017-02-09T07:44:42.428Z,8.71
2017-02-09T07:45:53.147Z,8.9
2017-02-09T07:47:03.864Z,8.81
2017-02-09T07:48:14.909Z,9.09
2017-02-09T07:49:25.213Z,8.71
2017-02-09T07:50:35.121Z,8.9
2017-02-09T07:51:45.870Z,9
2017-02-09T07:52:56.184Z,8.81
2017-02-09T07:54:07.217Z,8.81
2017-02-09T07:55:17.155Z,8.9
2017-02-09T07:56:27.482Z,9.09
2017-02-09T07:57:37.798Z,8.81
2017-02-09T07:58:48.118Z,8.81
2017-02-09T07:59:58.749Z,8.9
2017-02-09T08:01:08.254Z,9.09
2017-02-09T08:02:18.957Z,8.9
2017-02-09T08:03:29.304Z,8.61
2017-02-09T08:04:39.620Z,9.09
2017-02-09T08:05:50.187Z,8.9
2017-02-09T08:07:00.502Z,8.9
2017-02-09T08:08:11.204Z,8.9
2017-02-09T08:09:21.124Z,8.9
2017-02-09T08:10:31.826Z,9.09
2017-02-09T08:11:42.497Z,9.28
2017-02-09T08:12:53.215Z,9.09
2017-02-09T08:14:02.750Z,9.19
2017-02-09T08:15:13.083Z,9.28
2017-02-09T08:16:23.259Z,9.28
2017-02-09T08:17:33.871Z,9.28
2017-02-09T08:18:44.184Z,9.28
2017-02-09T08:19:54.517Z,9.09
2017-02-09T08:21:05.155Z,9.19
2017-02-09T08:22:15.873Z,9.38
2017-02-09T08:23:26.047Z,9.38
2017-02-09T08:24:35.582Z,9.19
2017-02-09T08:25:45.899Z,9.09
2017-02-09T08:26:56.650Z,9.19
2017-02-09T08:28:06.986Z,9.48
2017-02-09T08:29:17.576Z,9.38
2017-02-09T08:30:27.909Z,9.38
2017-02-09T08:31:37.849Z,9.77
2017-02-09T08:32:48.592Z,9.77
2017-02-09T08:33:58.931Z,9.67
2017-02-09T08:35:09.498Z,10.06
2017-02-09T08:36:19.817Z,10.06
2017-02-09T08:37:30.138Z,9.86
2017-02-09T08:38:40.876Z,10.05
2017-02-09T08:39:51.203Z,9.86
2017-02-09T08:41:00.973Z,10.15
2017-02-09T08:42:10.903Z,10.14
2017-02-09T08:43:20.838Z,10.14
2017-02-09T08:44:31.158Z,9.86
2017-02-09T08:45:41.507Z,10.34
2017-02-09T08:46:52.148Z,9.95
2017-02-09T08:48:02.867Z,9.95
2017-02-09T08:49:13.599Z,10.14
2017-02-09T08:50:23.943Z,10.05
2017-02-09T08:51:34.286Z,9.95
2017-02-09T08:52:44.881Z,10.34
2017-02-09T08:53:55.243Z,9.86
2017-02-09T08:55:05.544Z,10.05
2017-02-09T08:56:15.089Z,10.05
2017-02-09T08:57:25.799Z,9.77
2017-02-09T08:58:36.380Z,10.06
2017-02-09T08:59:47.162Z,9.86
2017-02-09T09:00:57.483Z,10.06
2017-02-09T09:02:08.422Z,9.96
2017-02-09T09:03:19.156Z,9.96
2017-02-09T09:04:29.772Z,9.86
2017-02-09T09:05:40.123Z,9.96
2017-02-09T09:06:50.856Z,10.35
2017-02-09T09:08:01.177Z,10.63
2017-02-09T09:09:11.330Z,10.53
2017-02-09T09:10:22.316Z,10.53
2017-02-09T09:11:33.050Z,10.63
2017-02-09T09:12:43.365Z,10.92
2017-02-09T09:13:53.695Z,11.01
2017-02-09T09:15:04.393Z,11.01
2017-02-09T09:16:15.688Z,10.92
2017-02-09T09:17:26.002Z,11.21
2017-02-09T09:18:36.715Z,11.21
2017-02-09T09:19:47.023Z,11.11
2017-02-09T09:20:57.336Z,10.92
2017-02-09T09:22:08.004Z,11.21
2017-02-09T09:23:18.039Z,11.21
2017-02-09T09:24:28.775Z,11.88
2017-02-09T09:25:39.108Z,11.3
2017-02-09T09:26:49.813Z,11.21
2017-02-09T09:28:00.397Z,11.49
2017-02-09T09:29:10.717Z,11.4
2017-02-09T09:30:21.423Z,11.4
2017-02-09T09:31:32.118Z,11.68
2017-02-09T09:32:42.442Z,11.68
2017-02-09T09:33:52.706Z,11.78
2017-02-09T09:35:02.608Z,11.59
2017-02-09T09:36:12.912Z,11.68
2017-02-09T09:37:23.382Z,11.78
2017-02-09T09:38:34.101Z,11.68
2017-02-09T09:39:44.844Z,11.4
2017-02-09T09:40:55.583Z,11.49
2017-02-09T09:42:06.642Z,11.11
2017-02-09T09:43:16.995Z,11.21
2017-02-09T09:44:27.750Z,11.21
2017-02-09T09:45:38.797Z,11.3
2017-02-09T09:46:48.391Z,10.82
2017-02-09T09:47:59.122Z,11.01
2017-02-09T09:49:09.882Z,11.11
2017-02-09T09:50:19.852Z,11.01
2017-02-09T09:51:30.440Z,10.72
2017-02-09T09:52:41.161Z,11.01
2017-02-09T09:53:51.901Z,10.82
2017-02-09T09:55:02.610Z,10.92
2017-02-09T09:56:13.346Z,11.11
2017-02-09T09:57:23.689Z,10.53
2017-02-09T09:58:34.043Z,10.44
2017-02-09T09:59:44.751Z,10.63
2017-02-09T10:00:55.497Z,10.92
2017-02-09T10:02:05.674Z,11.01
2017-02-09T10:03:15.629Z,10.93
2017-02-09T10:04:25.965Z,11.21
2017-02-09T10:05:36.744Z,10.92
2017-02-09T10:06:47.084Z,10.93
2017-02-09T10:07:58.115Z,11.01
2017-02-09T10:09:08.829Z,10.83
2017-02-09T10:10:18.759Z,10.63
2017-02-09T10:11:29.474Z,11.11
2017-02-09T10:12:39.891Z,11.01
2017-02-09T10:13:50.463Z,11.02
2017-02-09T10:15:01.196Z,11.01
2017-02-09T10:16:11.894Z,10.73
2017-02-09T10:17:21.802Z,11.11
2017-02-09T10:18:32.523Z,10.73
2017-02-09T10:19:42.291Z,10.73
2017-02-09T10:20:52.649Z,10.63
2017-02-09T10:22:02.569Z,10.73
2017-02-09T10:23:13.276Z,10.44
2017-02-09T10:24:22.789Z,10.64
2017-02-09T10:25:33.441Z,10.44
2017-02-09T10:26:44.162Z,10.54
2017-02-09T10:27:54.874Z,9.97
2017-02-09T10:29:05.187Z,10.16
2017-02-09T10:30:15.512Z,10.16
2017-02-09T10:31:25.797Z,10.64
2017-02-09T10:32:36.473Z,10.64
2017-02-09T10:33:47.164Z,10.64
2017-02-09T10:34:57.493Z,10.73
2017-02-09T10:36:08.192Z,10.35
2017-02-09T10:37:18.758Z,10.06
2017-02-09T10:38:28.270Z,9.77
2017-02-09T10:39:38.604Z,10.06
2017-02-09T10:40:48.501Z,10.54
2017-02-09T10:41:58.818Z,10.25
2017-02-09T10:43:09.379Z,10.35
2017-02-09T10:44:19.919Z,10.44
2017-02-09T10:45:30.669Z,10.54
2017-02-09T10:46:40.608Z,10.44
2017-02-09T10:47:50.972Z,10.44
2017-02-09T10:49:01.630Z,10.54
2017-02-09T10:50:12.003Z,10.54
2017-02-09T10:51:22.297Z,9.87
2017-02-09T10:52:32.622Z,10.25
2017-02-09T10:53:43.356Z,10.06
2017-02-09T10:54:53.971Z,10.06
2017-02-09T10:56:04.302Z,10.16
2017-02-09T10:57:15.002Z,10.06
2017-02-09T10:58:24.527Z,10.06
2017-02-09T10:59:35.291Z,10.44
2017-02-09T11:00:45.727Z,10.35
2017-02-09T11:01:56.265Z,10.44
2017-02-09T11:03:06.582Z,10.54
2017-02-09T11:04:16.890Z,10.35
2017-02-09T11:05:27.212Z,9.97
2017-02-09T11:06:38.169Z,10.54
2017-02-09T11:07:48.508Z,10.64
2017-02-09T11:08:58.825Z,10.64
2017-02-09T11:10:09.546Z,10.54
2017-02-09T11:11:19.861Z,10.44
2017-02-09T11:12:30.041Z,10.35
2017-02-09T11:13:39.175Z,10.64
2017-02-09T11:14:49.097Z,10.44
2017-02-09T11:15:59.428Z,10.54
2017-02-09T11:17:09.344Z,10.54
2017-02-09T11:18:19.901Z,10.64
2017-02-09T11:19:29.813Z,10.44
2017-02-09T11:20:40.156Z,10.44
2017-02-09T11:21:50.856Z,10.25
2017-02-09T11:23:00.768Z,10.25
2017-02-09T11:24:10.927Z,10.44
2017-02-09T11:25:21.231Z,10.06
2017-02-09T11:26:30.760Z,10.35
2017-02-09T11:27:41.091Z,10.35
2017-02-09T11:28:51.434Z,10.06
2017-02-09T11:30:02.013Z,9.68
2017-02-09T11:31:11.990Z,9.77
2017-02-09T11:32:21.907Z,9.87
2017-02-09T11:33:31.441Z,9.97
2017-02-09T11:34:41.341Z,9.77
2017-02-09T11:35:51.501Z,10.06
2017-02-09T11:37:02.218Z,9.87
2017-02-09T11:38:12.108Z,9.97
2017-02-09T11:39:22.847Z,9.77
2017-02-09T11:40:32.389Z,9.78
2017-02-09T11:41:43.335Z,9.97
2017-02-09T11:42:54.054Z,9.87
2017-02-09T11:44:04.765Z,10.06
2017-02-09T11:45:15.475Z,10.06
2017-02-09T11:46:26.188Z,9.88
2017-02-09T11:47:36.748Z,9.97
2017-02-09T11:48:47.052Z,9.87
2017-02-09T11:49:57.360Z,9.88
2017-02-09T11:51:07.685Z,9.87
2017-02-09T11:52:17.634Z,9.88
2017-02-09T11:53:27.843Z,9.97
2017-02-09T11:54:39.307Z,9.88
2017-02-09T11:55:50.169Z,9.78
2017-02-09T11:57:00.444Z,9.68
2017-02-09T11:58:11.165Z,10.06
2017-02-09T11:59:21.395Z,9.97
2017-02-09T12:00:32.348Z,9.88
2017-02-09T12:01:43.079Z,10.16
2017-02-09T12:02:53.397Z,10.74
2017-02-09T12:04:03.353Z,11.31
2017-02-09T12:05:14.370Z,11.51
2017-02-09T12:06:24.694Z,11.89
2017-02-09T12:07:35.422Z,12.18
2017-02-09T12:08:45.366Z,12.56
2017-02-09T12:09:55.694Z,12.85
2017-02-09T12:11:05.880Z,13.14
2017-02-09T12:12:16.243Z,13.24
2017-02-09T12:13:26.969Z,13.52
2017-02-09T12:14:37.287Z,13.32
2017-02-09T12:15:48.011Z,13.23
2017-02-09T12:16:58.600Z,13.42
2017-02-09T12:18:08.962Z,13.61
2017-02-09T12:19:19.692Z,14.28
2017-02-09T12:20:29.231Z,14.19
2017-02-09T12:21:39.542Z,14
2017-02-09T12:22:50.163Z,13.81
2017-02-09T12:24:00.897Z,13.23
2017-02-09T12:25:11.615Z,13.13
2017-02-09T12:26:21.928Z,13.13
2017-02-09T12:27:32.242Z,12.46
2017-02-09T12:28:42.851Z,12.46
2017-02-09T12:29:53.562Z,12.18
2017-02-09T12:31:04.296Z,12.18
2017-02-09T12:32:14.210Z,12.56
2017-02-09T12:33:24.131Z,12.56
2017-02-09T12:34:34.695Z,12.27
2017-02-09T12:35:44.608Z,12.36
2017-02-09T12:36:54.909Z,12.07
2017-02-09T12:38:04.846Z,12.17
2017-02-09T12:39:15.160Z,12.17
2017-02-09T12:40:25.727Z,11.98
2017-02-09T12:41:35.669Z,12.36
2017-02-09T12:42:45.607Z,11.98
2017-02-09T12:43:55.521Z,12.17
2017-02-09T12:45:06.219Z,11.98
2017-02-09T12:46:17.186Z,11.69
2017-02-09T12:47:27.508Z,11.6
2017-02-09T12:48:37.832Z,12.17
2017-02-09T12:49:48.634Z,12.17
2017-02-09T12:50:59.336Z,12.27
2017-02-09T12:52:09.507Z,12.17
2017-02-09T12:53:19.838Z,11.98
2017-02-09T12:54:30.573Z,12.07
2017-02-09T12:55:40.910Z,12.07
2017-02-09T12:56:51.262Z,12.17
2017-02-09T12:58:02.229Z,12.17
2017-02-09T12:59:12.550Z,12.07
2017-02-09T13:00:23.278Z,11.98
2017-02-09T13:01:34.005Z,11.6
2017-02-09T13:02:44.731Z,11.21
2017-02-09T13:03:54.914Z,11.79
2017-02-09T13:05:05.272Z,11.88
2017-02-09T13:06:16.021Z,11.88
2017-02-09T13:07:26.338Z,12.07
2017-02-09T13:08:36.681Z,11.79
2017-02-09T13:09:46.847Z,12.07
2017-02-09T13:10:56.366Z,11.98
2017-02-09T13:12:07.101Z,11.98
2017-02-09T13:13:16.638Z,11.6
2017-02-09T13:14:26.177Z,12.07
2017-02-09T13:15:36.379Z,12.16
2017-02-09T13:16:47.102Z,11.49
2017-02-09T13:17:57.817Z,11.79
2017-02-09T13:19:08.655Z,11.21
2017-02-09T13:20:18.980Z,11.3
2017-02-09T13:21:29.184Z,11.21
2017-02-09T13:22:39.125Z,11.21
2017-02-09T13:23:49.474Z,10.82
2017-02-09T13:25:00.185Z,11.21
2017-02-09T13:26:10.913Z,11.11
2017-02-09T13:27:21.988Z,11.01
2017-02-09T13:28:32.701Z,11.21
2017-02-09T13:29:42.253Z,11.11
2017-02-09T13:30:52.188Z,10.92
2017-02-09T13:32:02.501Z,10.82
2017-02-09T13:33:13.118Z,10.44
2017-02-09T13:34:23.431Z,10.72
2017-02-09T13:35:34.165Z,11.11
2017-02-09T13:36:44.498Z,11.11
2017-02-09T13:37:55.252Z,10.44
2017-02-09T13:39:05.865Z,10.72
2017-02-09T13:40:15.813Z,10.63
2017-02-09T13:41:26.549Z,10.63
2017-02-09T13:42:36.878Z,10.53
2017-02-09T13:43:47.591Z,10.63
2017-02-09T13:44:58.155Z,10.44
2017-02-09T13:46:08.888Z,9.96
2017-02-09T13:47:18.823Z,10.44
2017-02-09T13:48:29.588Z,10.15
2017-02-09T13:49:40.302Z,9.86
2017-02-09T13:50:51.307Z,9.96
2017-02-09T13:52:02.048Z,10.15
2017-02-09T13:53:11.990Z,10.06
2017-02-09T13:54:21.963Z,9.86
2017-02-09T13:55:32.706Z,9.86
2017-02-09T13:56:43.324Z,9.77
2017-02-09T13:57:52.840Z,9.39
2017-02-09T13:59:02.776Z,9.96
2017-02-09T14:00:13.089Z,10.06
2017-02-09T14:01:23.394Z,9.67
2017-02-09T14:02:34.368Z,9.96
2017-02-09T14:03:44.694Z,9.96
2017-02-09T14:04:55.033Z,9.48
2017-02-09T14:06:05.346Z,9.77
2017-02-09T14:07:15.671Z,9.58
2017-02-09T14:08:26.295Z,9.67
2017-02-09T14:09:36.597Z,9.67
2017-02-09T14:10:46.505Z,9.77
2017-02-09T14:11:56.016Z,9.39
2017-02-09T14:13:05.943Z,9.77
2017-02-09T14:14:16.890Z,9.67
2017-02-09T14:15:26.800Z,9.48
2017-02-09T14:16:37.488Z,9.29
2017-02-09T14:17:48.194Z,9.39
2017-02-09T14:18:58.891Z,9.29
2017-02-09T14:20:09.451Z,9.39
2017-02-09T14:21:20.145Z,9.48
2017-02-09T14:22:30.467Z,9.29
2017-02-09T14:23:40.370Z,9.19
2017-02-09T14:24:51.082Z,9.29
2017-02-09T14:26:01.240Z,9.39
2017-02-09T14:27:11.791Z,9.19
2017-02-09T14:28:22.491Z,9.39
2017-02-09T14:29:31.601Z,9.39
2017-02-09T14:30:41.893Z,9.29
2017-02-09T14:31:52.050Z,9.19
2017-02-09T14:33:02.732Z,8.91
2017-02-09T14:34:12.671Z,9.29
2017-02-09T14:35:23.363Z,9.19
2017-02-09T14:36:33.673Z,9.1
2017-02-09T14:37:43.841Z,9.39
2017-02-09T14:38:53.739Z,9.39
2017-02-09T14:40:03.635Z,9.29
2017-02-09T14:41:13.941Z,9.29
2017-02-09T14:42:24.232Z,9.29
2017-02-09T14:43:34.839Z,9.39
2017-02-09T14:44:45.842Z,9.1
2017-02-09T14:45:55.741Z,9.39
2017-02-09T14:47:05.652Z,9.1
2017-02-09T14:48:16.354Z,9.1
2017-02-09T14:49:26.917Z,9.29
2017-02-09T14:50:36.837Z,9.29
2017-02-09T14:51:47.156Z,9
2017-02-09T14:52:57.844Z,8.91
2017-02-09T14:54:08.225Z,9.39
2017-02-09T14:55:18.821Z,8.91
2017-02-09T14:56:27.946Z,9.19
2017-02-09T14:57:38.260Z,9
2017-02-09T14:58:48.589Z,9.29
2017-02-09T14:59:58.903Z,9
2017-02-09T15:01:09.124Z,9.39
2017-02-09T15:02:19.066Z,9.19
2017-02-09T15:03:28.990Z,9.39
2017-02-09T15:04:39.697Z,9.29
2017-02-09T15:05:49.646Z,9.19
2017-02-09T15:07:00.623Z,9.29
2017-02-09T15:08:10.619Z,9.29
2017-02-09T15:09:20.587Z,9.29
2017-02-09T15:10:30.113Z,9.1
2017-02-09T15:11:40.523Z,8.62
2017-02-09T15:12:51.142Z,9.19
2017-02-09T15:14:01.456Z,9.19
2017-02-09T15:15:11.397Z,9.48
2017-02-09T15:16:21.745Z,9.29
2017-02-09T15:17:32.467Z,9.19
2017-02-09T15:18:43.058Z,9.1
2017-02-09T15:19:53.375Z,9.19